sensor_id;sensor_type;location;lat;lon;timestamp;P1;durP1;ratioP1;P2;durP2;ratioP2
3068;SDS011;1545;51.728;8.796;2023-08-21T00:01:05;13.10;;;7.60;;
3068;SDS011;1545;51.728;8.796;2023-08-21T00:03:31;13.13;;;7.47;;
3068;SDS011;1545;51.728;8.796;2023-08-21T00:05:56;17.60;;;7.50;;
3068;SDS011;1545;51.728;8.796;2023-08-21T00:08:22;16.20;;;7.67;;
3068;SDS011;1545;51.728;8.796;2023-08-21T00:10:47;15.17;;;8.10;;
3068;SDS011;1545;51.728;8.796;2023-08-21T00:13:13;14.17;;;7.93;;
3068;SDS011;1545;51.728;8.796;2023-08-21T00:15:38;14.77;;;7.90;;
3068;SDS011;1545;51.728;8.796;2023-08-21T00:18:04;25.30;;;8.63;;
3068;SDS011;1545;51.728;8.796;2023-08-21T00:20:30;13.53;;;8.37;;
3068;SDS011;1545;51.728;8.796;2023-08-21T00:22:56;13.87;;;8.27;;
3068;SDS011;1545;51.728;8.796;2023-08-21T00:25:22;14.70;;;8.37;;
3068;SDS011;1545;51.728;8.796;2023-08-21T00:27:48;13.30;;;7.90;;
3068;SDS011;1545;51.728;8.796;2023-08-21T00:30:13;13.97;;;8.03;;
3068;SDS011;1545;51.728;8.796;2023-08-21T00:32:42;15.67;;;8.00;;
3068;SDS011;1545;51.728;8.796;2023-08-21T00:35:07;14.80;;;8.17;;
3068;SDS011;1545;51.728;8.796;2023-08-21T00:37:33;28.00;;;8.83;;
3068;SDS011;1545;51.728;8.796;2023-08-21T00:39:58;19.40;;;9.13;;
3068;SDS011;1545;51.728;8.796;2023-08-21T00:42:24;18.00;;;10.03;;
3068;SDS011;1545;51.728;8.796;2023-08-21T00:44:50;12.97;;;9.30;;
3068;SDS011;1545;51.728;8.796;2023-08-21T00:47:16;15.50;;;9.57;;
3068;SDS011;1545;51.728;8.796;2023-08-21T00:49:42;20.23;;;9.67;;
3068;SDS011;1545;51.728;8.796;2023-08-21T00:52:08;18.37;;;9.73;;
3068;SDS011;1545;51.728;8.796;2023-08-21T00:54:36;17.50;;;9.40;;
3068;SDS011;1545;51.728;8.796;2023-08-21T00:57:02;13.13;;;9.20;;
3068;SDS011;1545;51.728;8.796;2023-08-21T00:59:29;20.03;;;9.83;;
3068;SDS011;1545;51.728;8.796;2023-08-21T01:01:55;15.73;;;9.10;;
3068;SDS011;1545;51.728;8.796;2023-08-21T01:04:21;18.73;;;9.87;;
3068;SDS011;1545;51.728;8.796;2023-08-21T01:06:48;25.97;;;9.17;;
3068;SDS011;1545;51.728;8.796;2023-08-21T01:09:23;12.40;;;9.30;;
3068;SDS011;1545;51.728;8.796;2023-08-21T01:17:25;20.23;;;9.43;;
3068;SDS011;1545;51.728;8.796;2023-08-21T01:19:53;13.03;;;8.17;;
3068;SDS011;1545;51.728;8.796;2023-08-21T01:22:20;13.53;;;7.40;;
3068;SDS011;1545;51.728;8.796;2023-08-21T01:24:50;17.37;;;7.57;;
3068;SDS011;1545;51.728;8.796;2023-08-21T01:27:15;14.67;;;7.17;;
3068;SDS011;1545;51.728;8.796;2023-08-21T01:29:41;15.30;;;6.77;;
3068;SDS011;1545;51.728;8.796;2023-08-21T01:32:15;13.50;;;7.03;;
3068;SDS011;1545;51.728;8.796;2023-08-21T01:35:03;10.53;;;6.87;;
3068;SDS011;1545;51.728;8.796;2023-08-21T01:37:30;16.93;;;6.87;;
3068;SDS011;1545;51.728;8.796;2023-08-21T01:39:59;15.57;;;7.73;;
3068;SDS011;1545;51.728;8.796;2023-08-21T01:42:24;11.83;;;6.70;;
3068;SDS011;1545;51.728;8.796;2023-08-21T01:44:50;10.57;;;6.63;;
3068;SDS011;1545;51.728;8.796;2023-08-21T01:47:15;15.53;;;6.87;;
3068;SDS011;1545;51.728;8.796;2023-08-21T01:49:41;16.87;;;7.47;;
3068;SDS011;1545;51.728;8.796;2023-08-21T01:52:07;15.53;;;6.80;;
3068;SDS011;1545;51.728;8.796;2023-08-21T01:54:32;12.10;;;6.80;;
3068;SDS011;1545;51.728;8.796;2023-08-21T01:56:58;14.67;;;7.17;;
3068;SDS011;1545;51.728;8.796;2023-08-21T01:59:24;14.70;;;6.87;;
3068;SDS011;1545;51.728;8.796;2023-08-21T02:01:49;14.33;;;6.80;;
3068;SDS011;1545;51.728;8.796;2023-08-21T02:04:15;11.20;;;6.40;;
3068;SDS011;1545;51.728;8.796;2023-08-21T02:06:41;17.57;;;6.87;;
3068;SDS011;1545;51.728;8.796;2023-08-21T02:09:06;10.47;;;6.30;;
3068;SDS011;1545;51.728;8.796;2023-08-21T02:11:32;13.97;;;6.37;;
3068;SDS011;1545;51.728;8.796;2023-08-21T02:13:57;13.47;;;6.17;;
3068;SDS011;1545;51.728;8.796;2023-08-21T02:16:23;11.33;;;5.87;;
3068;SDS011;1545;51.728;8.796;2023-08-21T02:18:48;13.60;;;5.70;;
3068;SDS011;1545;51.728;8.796;2023-08-21T02:21:14;15.67;;;5.87;;
3068;SDS011;1545;51.728;8.796;2023-08-21T02:23:39;17.97;;;5.90;;
3068;SDS011;1545;51.728;8.796;2023-08-21T02:26:05;14.13;;;7.03;;
3068;SDS011;1545;51.728;8.796;2023-08-21T02:28:30;14.43;;;6.30;;
3068;SDS011;1545;51.728;8.796;2023-08-21T02:30:56;12.13;;;6.37;;
3068;SDS011;1545;51.728;8.796;2023-08-21T02:33:21;10.07;;;6.17;;
3068;SDS011;1545;51.728;8.796;2023-08-21T02:35:47;15.50;;;5.97;;
3068;SDS011;1545;51.728;8.796;2023-08-21T02:38:12;14.30;;;5.97;;
3068;SDS011;1545;51.728;8.796;2023-08-21T02:40:38;13.60;;;6.03;;
3068;SDS011;1545;51.728;8.796;2023-08-21T02:43:04;13.57;;;6.47;;
3068;SDS011;1545;51.728;8.796;2023-08-21T02:45:30;12.63;;;5.73;;
3068;SDS011;1545;51.728;8.796;2023-08-21T02:47:55;16.30;;;6.33;;
3068;SDS011;1545;51.728;8.796;2023-08-21T02:50:21;13.60;;;5.97;;
3068;SDS011;1545;51.728;8.796;2023-08-21T02:52:46;9.27;;;5.77;;
3068;SDS011;1545;51.728;8.796;2023-08-21T02:55:12;17.57;;;6.30;;
3068;SDS011;1545;51.728;8.796;2023-08-21T02:57:39;12.23;;;6.13;;
3068;SDS011;1545;51.728;8.796;2023-08-21T03:00:04;9.73;;;5.40;;
3068;SDS011;1545;51.728;8.796;2023-08-21T03:02:32;17.70;;;7.23;;
3068;SDS011;1545;51.728;8.796;2023-08-21T03:04:57;13.70;;;7.00;;
3068;SDS011;1545;51.728;8.796;2023-08-21T03:07:23;19.90;;;7.07;;
3068;SDS011;1545;51.728;8.796;2023-08-21T03:09:48;28.77;;;6.90;;
3068;SDS011;1545;51.728;8.796;2023-08-21T03:12:14;20.37;;;7.10;;
3068;SDS011;1545;51.728;8.796;2023-08-21T03:14:40;14.30;;;7.47;;
3068;SDS011;1545;51.728;8.796;2023-08-21T03:17:06;13.33;;;7.30;;
3068;SDS011;1545;51.728;8.796;2023-08-21T03:19:31;12.47;;;6.67;;
3068;SDS011;1545;51.728;8.796;2023-08-21T03:21:57;18.00;;;7.33;;
3068;SDS011;1545;51.728;8.796;2023-08-21T03:24:22;11.40;;;7.03;;
3068;SDS011;1545;51.728;8.796;2023-08-21T03:26:48;12.70;;;7.60;;
3068;SDS011;1545;51.728;8.796;2023-08-21T03:29:13;11.57;;;5.90;;
3068;SDS011;1545;51.728;8.796;2023-08-21T03:31:39;8.63;;;6.03;;
3068;SDS011;1545;51.728;8.796;2023-08-21T03:34:04;18.77;;;7.10;;
3068;SDS011;1545;51.728;8.796;2023-08-21T03:36:30;10.57;;;6.80;;
3068;SDS011;1545;51.728;8.796;2023-08-21T03:39:00;11.43;;;6.20;;
3068;SDS011;1545;51.728;8.796;2023-08-21T03:41:26;21.83;;;7.17;;
3068;SDS011;1545;51.728;8.796;2023-08-21T03:43:52;12.83;;;6.80;;
3068;SDS011;1545;51.728;8.796;2023-08-21T03:46:17;10.97;;;6.20;;
3068;SDS011;1545;51.728;8.796;2023-08-21T03:48:43;11.67;;;6.30;;
3068;SDS011;1545;51.728;8.796;2023-08-21T03:51:08;10.37;;;6.27;;
3068;SDS011;1545;51.728;8.796;2023-08-21T03:53:34;12.80;;;6.37;;
3068;SDS011;1545;51.728;8.796;2023-08-21T03:56:00;14.90;;;7.00;;
3068;SDS011;1545;51.728;8.796;2023-08-21T03:58:25;19.00;;;6.87;;
3068;SDS011;1545;51.728;8.796;2023-08-21T04:00:51;11.03;;;6.30;;
3068;SDS011;1545;51.728;8.796;2023-08-21T04:03:17;14.63;;;6.83;;
3068;SDS011;1545;51.728;8.796;2023-08-21T04:05:43;14.83;;;6.30;;
3068;SDS011;1545;51.728;8.796;2023-08-21T04:08:09;12.17;;;6.60;;
3068;SDS011;1545;51.728;8.796;2023-08-21T04:10:34;14.70;;;7.33;;
3068;SDS011;1545;51.728;8.796;2023-08-21T04:13:00;8.97;;;6.03;;
3068;SDS011;1545;51.728;8.796;2023-08-21T04:15:25;12.03;;;6.97;;
3068;SDS011;1545;51.728;8.796;2023-08-21T04:17:51;17.83;;;6.50;;
3068;SDS011;1545;51.728;8.796;2023-08-21T04:20:17;16.20;;;6.70;;
3068;SDS011;1545;51.728;8.796;2023-08-21T04:22:45;10.60;;;6.50;;
3068;SDS011;1545;51.728;8.796;2023-08-21T04:25:10;14.77;;;6.70;;
3068;SDS011;1545;51.728;8.796;2023-08-21T04:27:36;14.70;;;6.27;;
3068;SDS011;1545;51.728;8.796;2023-08-21T04:30:02;12.03;;;6.20;;
3068;SDS011;1545;51.728;8.796;2023-08-21T04:32:28;15.00;;;6.33;;
3068;SDS011;1545;51.728;8.796;2023-08-21T04:34:54;11.87;;;6.50;;
3068;SDS011;1545;51.728;8.796;2023-08-21T04:37:19;9.30;;;6.20;;
3068;SDS011;1545;51.728;8.796;2023-08-21T04:39:45;9.27;;;6.67;;
3068;SDS011;1545;51.728;8.796;2023-08-21T04:42:14;11.97;;;6.47;;
3068;SDS011;1545;51.728;8.796;2023-08-21T04:44:40;11.07;;;6.20;;
3068;SDS011;1545;51.728;8.796;2023-08-21T04:47:21;14.83;;;6.37;;
3068;SDS011;1545;51.728;8.796;2023-08-21T04:49:51;10.73;;;5.83;;
3068;SDS011;1545;51.728;8.796;2023-08-21T04:52:17;14.23;;;5.97;;
3068;SDS011;1545;51.728;8.796;2023-08-21T04:54:43;9.13;;;5.33;;
3068;SDS011;1545;51.728;8.796;2023-08-21T04:57:09;11.90;;;5.20;;
3068;SDS011;1545;51.728;8.796;2023-08-21T04:59:35;13.53;;;5.53;;
3068;SDS011;1545;51.728;8.796;2023-08-21T05:02:01;17.87;;;5.33;;
3068;SDS011;1545;51.728;8.796;2023-08-21T05:04:27;19.93;;;5.50;;
3068;SDS011;1545;51.728;8.796;2023-08-21T05:06:52;13.83;;;5.87;;
3068;SDS011;1545;51.728;8.796;2023-08-21T05:09:18;15.20;;;5.43;;
3068;SDS011;1545;51.728;8.796;2023-08-21T05:11:43;13.57;;;5.90;;
3068;SDS011;1545;51.728;8.796;2023-08-21T05:14:09;18.40;;;5.73;;
3068;SDS011;1545;51.728;8.796;2023-08-21T05:16:34;12.10;;;5.57;;
3068;SDS011;1545;51.728;8.796;2023-08-21T05:19:00;15.13;;;5.43;;
3068;SDS011;1545;51.728;8.796;2023-08-21T05:21:25;15.77;;;5.30;;
3068;SDS011;1545;51.728;8.796;2023-08-21T05:23:51;14.97;;;5.70;;
3068;SDS011;1545;51.728;8.796;2023-08-21T05:26:18;14.37;;;5.27;;
3068;SDS011;1545;51.728;8.796;2023-08-21T05:28:44;10.07;;;5.50;;
3068;SDS011;1545;51.728;8.796;2023-08-21T05:31:10;9.90;;;5.00;;
3068;SDS011;1545;51.728;8.796;2023-08-21T05:33:35;13.97;;;6.33;;
3068;SDS011;1545;51.728;8.796;2023-08-21T05:36:01;16.87;;;6.40;;
3068;SDS011;1545;51.728;8.796;2023-08-21T05:38:27;10.37;;;6.17;;
3068;SDS011;1545;51.728;8.796;2023-08-21T05:40:52;12.70;;;6.17;;
3068;SDS011;1545;51.728;8.796;2023-08-21T05:43:18;17.27;;;6.77;;
3068;SDS011;1545;51.728;8.796;2023-08-21T05:45:43;15.13;;;5.87;;
3068;SDS011;1545;51.728;8.796;2023-08-21T05:48:09;15.83;;;5.37;;
3068;SDS011;1545;51.728;8.796;2023-08-21T05:50:35;10.63;;;5.03;;
3068;SDS011;1545;51.728;8.796;2023-08-21T05:53:04;19.20;;;5.10;;
3068;SDS011;1545;51.728;8.796;2023-08-21T05:55:30;22.40;;;4.40;;
3068;SDS011;1545;51.728;8.796;2023-08-21T05:57:56;16.13;;;4.30;;
3068;SDS011;1545;51.728;8.796;2023-08-21T06:00:21;15.90;;;4.20;;
3068;SDS011;1545;51.728;8.796;2023-08-21T06:02:47;21.10;;;9.27;;
3068;SDS011;1545;51.728;8.796;2023-08-21T06:05:12;10.63;;;5.43;;
3068;SDS011;1545;51.728;8.796;2023-08-21T06:07:38;20.07;;;5.57;;
3068;SDS011;1545;51.728;8.796;2023-08-21T06:10:05;12.07;;;5.03;;
3068;SDS011;1545;51.728;8.796;2023-08-21T06:12:32;13.97;;;4.93;;
3068;SDS011;1545;51.728;8.796;2023-08-21T06:14:57;10.10;;;3.90;;
3068;SDS011;1545;51.728;8.796;2023-08-21T06:17:23;14.57;;;4.67;;
3068;SDS011;1545;51.728;8.796;2023-08-21T06:19:48;10.67;;;4.20;;
3068;SDS011;1545;51.728;8.796;2023-08-21T06:22:14;10.80;;;4.30;;
3068;SDS011;1545;51.728;8.796;2023-08-21T06:24:40;10.53;;;3.90;;
3068;SDS011;1545;51.728;8.796;2023-08-21T06:27:06;19.13;;;4.30;;
3068;SDS011;1545;51.728;8.796;2023-08-21T06:29:32;11.77;;;3.70;;
3068;SDS011;1545;51.728;8.796;2023-08-21T06:31:58;10.07;;;4.17;;
3068;SDS011;1545;51.728;8.796;2023-08-21T06:34:23;19.97;;;4.73;;
3068;SDS011;1545;51.728;8.796;2023-08-21T06:36:49;12.47;;;3.90;;
3068;SDS011;1545;51.728;8.796;2023-08-21T06:39:14;13.37;;;4.03;;
3068;SDS011;1545;51.728;8.796;2023-08-21T06:41:40;9.37;;;4.10;;
3068;SDS011;1545;51.728;8.796;2023-08-21T06:44:05;9.97;;;3.97;;
3068;SDS011;1545;51.728;8.796;2023-08-21T06:46:31;8.40;;;3.60;;
3068;SDS011;1545;51.728;8.796;2023-08-21T06:48:56;5.30;;;3.40;;
3068;SDS011;1545;51.728;8.796;2023-08-21T06:51:22;11.52;;;3.03;;
3068;SDS011;1545;51.728;8.796;2023-08-21T06:53:48;10.80;;;3.65;;
3068;SDS011;1545;51.728;8.796;2023-08-21T06:56:13;7.40;;;3.10;;
3068;SDS011;1545;51.728;8.796;2023-08-21T06:58:39;4.63;;;2.92;;
3068;SDS011;1545;51.728;8.796;2023-08-21T07:01:05;6.75;;;3.10;;
3068;SDS011;1545;51.728;8.796;2023-08-21T07:03:30;11.27;;;3.38;;
3068;SDS011;1545;51.728;8.796;2023-08-21T07:05:56;6.00;;;3.33;;
3068;SDS011;1545;51.728;8.796;2023-08-21T07:08:22;8.40;;;3.20;;
3068;SDS011;1545;51.728;8.796;2023-08-21T07:10:49;8.13;;;3.20;;
3068;SDS011;1545;51.728;8.796;2023-08-21T07:13:14;9.82;;;3.38;;
3068;SDS011;1545;51.728;8.796;2023-08-21T07:15:40;6.88;;;3.25;;
3068;SDS011;1545;51.728;8.796;2023-08-21T07:18:06;5.35;;;3.05;;
3068;SDS011;1545;51.728;8.796;2023-08-21T07:20:32;6.30;;;3.10;;
3068;SDS011;1545;51.728;8.796;2023-08-21T07:22:58;6.03;;;2.80;;
3068;SDS011;1545;51.728;8.796;2023-08-21T07:25:24;7.13;;;3.20;;
3068;SDS011;1545;51.728;8.796;2023-08-21T07:27:50;8.82;;;3.20;;
3068;SDS011;1545;51.728;8.796;2023-08-21T07:30:18;7.38;;;3.08;;
3068;SDS011;1545;51.728;8.796;2023-08-21T07:32:44;8.23;;;3.20;;
3068;SDS011;1545;51.728;8.796;2023-08-21T07:35:10;7.95;;;3.13;;
3068;SDS011;1545;51.728;8.796;2023-08-21T07:37:36;6.78;;;3.03;;
3068;SDS011;1545;51.728;8.796;2023-08-21T07:40:01;6.68;;;2.65;;
3068;SDS011;1545;51.728;8.796;2023-08-21T07:42:27;8.77;;;2.90;;
3068;SDS011;1545;51.728;8.796;2023-08-21T07:44:52;5.55;;;2.90;;
3068;SDS011;1545;51.728;8.796;2023-08-21T07:47:18;9.20;;;2.97;;
3068;SDS011;1545;51.728;8.796;2023-08-21T07:49:43;6.18;;;2.88;;
3068;SDS011;1545;51.728;8.796;2023-08-21T07:52:09;7.53;;;2.60;;
3068;SDS011;1545;51.728;8.796;2023-08-21T07:54:34;11.07;;;3.05;;
3068;SDS011;1545;51.728;8.796;2023-08-21T07:57:00;4.88;;;2.65;;
3068;SDS011;1545;51.728;8.796;2023-08-21T07:59:26;5.50;;;2.85;;
3068;SDS011;1545;51.728;8.796;2023-08-21T08:01:52;9.02;;;2.70;;
3068;SDS011;1545;51.728;8.796;2023-08-21T08:04:17;7.20;;;2.90;;
3068;SDS011;1545;51.728;8.796;2023-08-21T08:06:43;7.53;;;2.90;;
3068;SDS011;1545;51.728;8.796;2023-08-21T08:09:08;6.32;;;2.78;;
3068;SDS011;1545;51.728;8.796;2023-08-21T08:11:34;6.75;;;2.50;;
3068;SDS011;1545;51.728;8.796;2023-08-21T08:14:00;6.80;;;2.60;;
3068;SDS011;1545;51.728;8.796;2023-08-21T08:16:25;6.57;;;2.60;;
3068;SDS011;1545;51.728;8.796;2023-08-21T08:18:51;6.32;;;2.50;;
3068;SDS011;1545;51.728;8.796;2023-08-21T08:21:16;3.38;;;2.20;;
3068;SDS011;1545;51.728;8.796;2023-08-21T08:23:42;8.32;;;2.60;;
3068;SDS011;1545;51.728;8.796;2023-08-21T08:26:08;11.05;;;2.58;;
3068;SDS011;1545;51.728;8.796;2023-08-21T08:28:33;10.13;;;2.47;;
3068;SDS011;1545;51.728;8.796;2023-08-21T08:31:00;6.82;;;2.65;;
3068;SDS011;1545;51.728;8.796;2023-08-21T08:33:25;3.75;;;2.08;;
3068;SDS011;1545;51.728;8.796;2023-08-21T08:35:51;3.97;;;2.45;;
3068;SDS011;1545;51.728;8.796;2023-08-21T08:38:17;7.13;;;2.28;;
3068;SDS011;1545;51.728;8.796;2023-08-21T08:40:45;4.75;;;2.17;;
3068;SDS011;1545;51.728;8.796;2023-08-21T08:43:14;6.75;;;2.42;;
3068;SDS011;1545;51.728;8.796;2023-08-21T08:45:40;4.45;;;2.08;;
3068;SDS011;1545;51.728;8.796;2023-08-21T08:48:07;7.50;;;2.60;;
3068;SDS011;1545;51.728;8.796;2023-08-21T08:50:34;6.72;;;2.00;;
3068;SDS011;1545;51.728;8.796;2023-08-21T08:53:00;5.80;;;2.22;;
3068;SDS011;1545;51.728;8.796;2023-08-21T08:55:26;4.70;;;2.20;;
3068;SDS011;1545;51.728;8.796;2023-08-21T08:57:52;6.65;;;2.13;;
3068;SDS011;1545;51.728;8.796;2023-08-21T09:00:18;8.10;;;2.05;;
3068;SDS011;1545;51.728;8.796;2023-08-21T09:02:45;5.05;;;2.20;;
3068;SDS011;1545;51.728;8.796;2023-08-21T09:05:11;5.88;;;2.10;;
3068;SDS011;1545;51.728;8.796;2023-08-21T09:07:38;5.97;;;2.28;;
3068;SDS011;1545;51.728;8.796;2023-08-21T09:10:04;8.05;;;2.45;;
3068;SDS011;1545;51.728;8.796;2023-08-21T09:12:37;5.97;;;2.58;;
3068;SDS011;1545;51.728;8.796;2023-08-21T09:15:06;6.75;;;2.30;;
3068;SDS011;1545;51.728;8.796;2023-08-21T09:17:33;7.60;;;2.50;;
3068;SDS011;1545;51.728;8.796;2023-08-21T09:20:05;4.72;;;2.20;;
3068;SDS011;1545;51.728;8.796;2023-08-21T09:22:32;10.95;;;2.65;;
3068;SDS011;1545;51.728;8.796;2023-08-21T09:25:02;6.20;;;2.40;;
3068;SDS011;1545;51.728;8.796;2023-08-21T09:27:38;6.15;;;2.35;;
3068;SDS011;1545;51.728;8.796;2023-08-21T09:30:05;6.60;;;2.45;;
3068;SDS011;1545;51.728;8.796;2023-08-21T09:35:20;8.23;;;2.42;;
3068;SDS011;1545;51.728;8.796;2023-08-21T09:37:46;8.02;;;2.83;;
3068;SDS011;1545;51.728;8.796;2023-08-21T09:40:12;6.95;;;2.60;;
3068;SDS011;1545;51.728;8.796;2023-08-21T09:42:41;4.00;;;2.25;;
3068;SDS011;1545;51.728;8.796;2023-08-21T09:45:06;5.15;;;2.20;;
3068;SDS011;1545;51.728;8.796;2023-08-21T09:47:32;5.57;;;2.47;;
3068;SDS011;1545;51.728;8.796;2023-08-21T09:49:59;6.97;;;2.65;;
3068;SDS011;1545;51.728;8.796;2023-08-21T09:52:24;7.97;;;2.90;;
3068;SDS011;1545;51.728;8.796;2023-08-21T09:54:56;6.40;;;2.50;;
3068;SDS011;1545;51.728;8.796;2023-08-21T09:57:22;8.93;;;2.90;;
3068;SDS011;1545;51.728;8.796;2023-08-21T09:59:51;11.90;;;3.03;;
3068;SDS011;1545;51.728;8.796;2023-08-21T10:02:19;7.15;;;2.85;;
3068;SDS011;1545;51.728;8.796;2023-08-21T10:04:48;11.25;;;3.35;;
3068;SDS011;1545;51.728;8.796;2023-08-21T10:07:15;9.32;;;3.28;;
3068;SDS011;1545;51.728;8.796;2023-08-21T10:09:41;7.53;;;3.08;;
3068;SDS011;1545;51.728;8.796;2023-08-21T10:12:10;7.10;;;3.40;;
3068;SDS011;1545;51.728;8.796;2023-08-21T10:14:39;11.52;;;3.70;;
3068;SDS011;1545;51.728;8.796;2023-08-21T10:17:06;6.25;;;3.03;;
3068;SDS011;1545;51.728;8.796;2023-08-21T10:19:33;4.72;;;3.00;;
3068;SDS011;1545;51.728;8.796;2023-08-21T10:22:00;7.80;;;3.25;;
3068;SDS011;1545;51.728;8.796;2023-08-21T10:24:28;6.70;;;3.17;;
3068;SDS011;1545;51.728;8.796;2023-08-21T10:27:02;6.50;;;3.28;;
3068;SDS011;1545;51.728;8.796;2023-08-21T10:29:28;6.28;;;3.30;;
3068;SDS011;1545;51.728;8.796;2023-08-21T10:31:59;8.15;;;3.80;;
3068;SDS011;1545;51.728;8.796;2023-08-21T10:34:31;7.15;;;3.17;;
3068;SDS011;1545;51.728;8.796;2023-08-21T10:39:29;7.53;;;3.50;;
3068;SDS011;1545;51.728;8.796;2023-08-21T10:41:57;7.30;;;3.43;;
3068;SDS011;1545;51.728;8.796;2023-08-21T10:47:21;8.80;;;3.90;;
3068;SDS011;1545;51.728;8.796;2023-08-21T10:49:53;10.70;;;3.80;;
3068;SDS011;1545;51.728;8.796;2023-08-21T10:54:55;4.32;;;3.20;;
3068;SDS011;1545;51.728;8.796;2023-08-21T10:57:25;12.98;;;3.60;;
3068;SDS011;1545;51.728;8.796;2023-08-21T10:59:53;9.70;;;3.58;;
3068;SDS011;1545;51.728;8.796;2023-08-21T11:02:18;9.80;;;3.75;;
3068;SDS011;1545;51.728;8.796;2023-08-21T11:04:44;13.70;;;4.10;;
3068;SDS011;1545;51.728;8.796;2023-08-21T11:07:10;9.55;;;3.67;;
3068;SDS011;1545;51.728;8.796;2023-08-21T11:09:36;11.32;;;3.78;;
3068;SDS011;1545;51.728;8.796;2023-08-21T11:12:08;5.85;;;3.50;;
3068;SDS011;1545;51.728;8.796;2023-08-21T11:14:35;9.20;;;3.80;;
3068;SDS011;1545;51.728;8.796;2023-08-21T11:17:02;12.38;;;3.70;;
3068;SDS011;1545;51.728;8.796;2023-08-21T11:19:30;6.60;;;3.85;;
3068;SDS011;1545;51.728;8.796;2023-08-21T11:21:56;9.18;;;3.38;;
3068;SDS011;1545;51.728;8.796;2023-08-21T11:24:29;10.52;;;3.72;;
3068;SDS011;1545;51.728;8.796;2023-08-21T11:27:04;7.75;;;3.45;;
3068;SDS011;1545;51.728;8.796;2023-08-21T11:29:37;5.70;;;3.58;;
3068;SDS011;1545;51.728;8.796;2023-08-21T11:32:10;8.75;;;3.53;;
3068;SDS011;1545;51.728;8.796;2023-08-21T11:34:49;10.07;;;5.20;;
3068;SDS011;1545;51.728;8.796;2023-08-21T11:37:20;13.60;;;3.88;;
3068;SDS011;1545;51.728;8.796;2023-08-21T11:39:50;10.65;;;4.13;;
3068;SDS011;1545;51.728;8.796;2023-08-21T11:42:18;8.80;;;4.40;;
3068;SDS011;1545;51.728;8.796;2023-08-21T11:44:51;13.18;;;4.45;;
3068;SDS011;1545;51.728;8.796;2023-08-21T11:47:18;9.18;;;3.78;;
3068;SDS011;1545;51.728;8.796;2023-08-21T11:49:46;9.38;;;3.92;;
3068;SDS011;1545;51.728;8.796;2023-08-21T11:52:17;7.60;;;3.55;;
3068;SDS011;1545;51.728;8.796;2023-08-21T11:54:50;6.93;;;3.70;;
3068;SDS011;1545;51.728;8.796;2023-08-21T11:57:17;9.27;;;3.75;;
3068;SDS011;1545;51.728;8.796;2023-08-21T11:59:43;7.22;;;3.63;;
3068;SDS011;1545;51.728;8.796;2023-08-21T12:02:19;11.13;;;3.67;;
3068;SDS011;1545;51.728;8.796;2023-08-21T12:05:03;18.35;;;4.15;;
3068;SDS011;1545;51.728;8.796;2023-08-21T12:07:30;10.57;;;3.53;;
3068;SDS011;1545;51.728;8.796;2023-08-21T12:09:56;9.48;;;4.05;;
3068;SDS011;1545;51.728;8.796;2023-08-21T12:12:22;9.35;;;4.13;;
3068;SDS011;1545;51.728;8.796;2023-08-21T12:14:48;8.48;;;3.90;;
3068;SDS011;1545;51.728;8.796;2023-08-21T12:17:14;9.70;;;4.07;;
3068;SDS011;1545;51.728;8.796;2023-08-21T12:19:39;10.90;;;4.45;;
3068;SDS011;1545;51.728;8.796;2023-08-21T12:22:06;12.00;;;4.50;;
3068;SDS011;1545;51.728;8.796;2023-08-21T12:24:32;8.27;;;3.83;;
3068;SDS011;1545;51.728;8.796;2023-08-21T12:26:57;28.60;;;4.28;;
3068;SDS011;1545;51.728;8.796;2023-08-21T12:29:23;9.60;;;4.32;;
3068;SDS011;1545;51.728;8.796;2023-08-21T12:31:48;8.38;;;3.95;;
3068;SDS011;1545;51.728;8.796;2023-08-21T12:34:14;13.63;;;4.57;;
3068;SDS011;1545;51.728;8.796;2023-08-21T12:36:39;9.40;;;4.40;;
3068;SDS011;1545;51.728;8.796;2023-08-21T12:39:06;11.43;;;4.63;;
3068;SDS011;1545;51.728;8.796;2023-08-21T12:41:32;13.32;;;4.63;;
3068;SDS011;1545;51.728;8.796;2023-08-21T12:43:59;10.50;;;4.25;;
3068;SDS011;1545;51.728;8.796;2023-08-21T12:46:25;10.23;;;4.55;;
3068;SDS011;1545;51.728;8.796;2023-08-21T12:48:52;12.60;;;4.95;;
3068;SDS011;1545;51.728;8.796;2023-08-21T12:51:18;6.60;;;4.63;;
3068;SDS011;1545;51.728;8.796;2023-08-21T12:53:44;6.07;;;4.32;;
3068;SDS011;1545;51.728;8.796;2023-08-21T12:56:10;11.63;;;4.15;;
3068;SDS011;1545;51.728;8.796;2023-08-21T12:58:36;7.53;;;4.43;;
3068;SDS011;1545;51.728;8.796;2023-08-21T13:01:01;13.52;;;4.70;;
3068;SDS011;1545;51.728;8.796;2023-08-21T13:03:28;8.27;;;4.95;;
3068;SDS011;1545;51.728;8.796;2023-08-21T13:05:54;8.95;;;5.10;;
3068;SDS011;1545;51.728;8.796;2023-08-21T13:08:20;14.63;;;5.82;;
3068;SDS011;1545;51.728;8.796;2023-08-21T13:10:46;7.97;;;4.97;;
3068;SDS011;1545;51.728;8.796;2023-08-21T13:13:11;8.93;;;5.50;;
3068;SDS011;1545;51.728;8.796;2023-08-21T13:15:37;7.40;;;5.30;;
3068;SDS011;1545;51.728;8.796;2023-08-21T13:18:03;10.65;;;5.55;;
3068;SDS011;1545;51.728;8.796;2023-08-21T13:20:29;8.30;;;5.20;;
3068;SDS011;1545;51.728;8.796;2023-08-21T13:22:54;9.68;;;5.38;;
3068;SDS011;1545;51.728;8.796;2023-08-21T13:25:23;9.40;;;5.20;;
3068;SDS011;1545;51.728;8.796;2023-08-21T13:27:50;12.38;;;5.80;;
3068;SDS011;1545;51.728;8.796;2023-08-21T13:30:16;7.45;;;5.18;;
3068;SDS011;1545;51.728;8.796;2023-08-21T13:32:42;10.18;;;5.30;;
3068;SDS011;1545;51.728;8.796;2023-08-21T13:35:08;12.40;;;5.45;;
3068;SDS011;1545;51.728;8.796;2023-08-21T13:37:34;10.15;;;5.70;;
3068;SDS011;1545;51.728;8.796;2023-08-21T13:40:01;7.47;;;5.18;;
3068;SDS011;1545;51.728;8.796;2023-08-21T13:42:35;11.52;;;5.28;;
3068;SDS011;1545;51.728;8.796;2023-08-21T13:45:05;13.52;;;4.50;;
3068;SDS011;1545;51.728;8.796;2023-08-21T13:47:37;13.20;;;4.82;;
3068;SDS011;1545;51.728;8.796;2023-08-21T13:50:06;12.57;;;4.75;;
3068;SDS011;1545;51.728;8.796;2023-08-21T13:52:33;11.70;;;4.82;;
3068;SDS011;1545;51.728;8.796;2023-08-21T13:54:59;12.15;;;5.05;;
3068;SDS011;1545;51.728;8.796;2023-08-21T13:57:25;14.43;;;4.55;;
3068;SDS011;1545;51.728;8.796;2023-08-21T13:59:51;9.15;;;4.25;;
3068;SDS011;1545;51.728;8.796;2023-08-21T14:02:17;10.52;;;4.85;;
3068;SDS011;1545;51.728;8.796;2023-08-21T14:04:43;17.77;;;5.07;;
3068;SDS011;1545;51.728;8.796;2023-08-21T14:07:10;10.50;;;4.30;;
3068;SDS011;1545;51.728;8.796;2023-08-21T14:09:36;8.40;;;4.72;;
3068;SDS011;1545;51.728;8.796;2023-08-21T14:12:02;11.65;;;4.80;;
3068;SDS011;1545;51.728;8.796;2023-08-21T14:14:28;11.52;;;4.80;;
3068;SDS011;1545;51.728;8.796;2023-08-21T14:16:53;8.77;;;4.65;;
3068;SDS011;1545;51.728;8.796;2023-08-21T14:19:19;9.30;;;4.25;;
3068;SDS011;1545;51.728;8.796;2023-08-21T14:21:45;9.88;;;5.00;;
3068;SDS011;1545;51.728;8.796;2023-08-21T14:24:10;10.43;;;4.95;;
3068;SDS011;1545;51.728;8.796;2023-08-21T14:26:36;9.77;;;4.97;;
3068;SDS011;1545;51.728;8.796;2023-08-21T14:29:01;12.15;;;4.40;;
3068;SDS011;1545;51.728;8.796;2023-08-21T14:31:27;14.60;;;5.40;;
3068;SDS011;1545;51.728;8.796;2023-08-21T14:33:52;10.80;;;5.43;;
3068;SDS011;1545;51.728;8.796;2023-08-21T14:36:18;10.75;;;4.82;;
3068;SDS011;1545;51.728;8.796;2023-08-21T14:38:44;12.10;;;5.72;;
3068;SDS011;1545;51.728;8.796;2023-08-21T14:41:10;11.48;;;5.60;;
3068;SDS011;1545;51.728;8.796;2023-08-21T14:43:35;10.38;;;5.82;;
3068;SDS011;1545;51.728;8.796;2023-08-21T14:46:01;16.55;;;5.47;;
3068;SDS011;1545;51.728;8.796;2023-08-21T14:48:29;11.02;;;5.80;;
3068;SDS011;1545;51.728;8.796;2023-08-21T14:50:54;7.85;;;4.85;;
3068;SDS011;1545;51.728;8.796;2023-08-21T14:53:20;10.10;;;5.85;;
3068;SDS011;1545;51.728;8.796;2023-08-21T14:55:45;14.82;;;6.05;;
3068;SDS011;1545;51.728;8.796;2023-08-21T14:58:11;13.63;;;6.20;;
3068;SDS011;1545;51.728;8.796;2023-08-21T15:00:36;13.88;;;5.63;;
3068;SDS011;1545;51.728;8.796;2023-08-21T15:03:02;11.35;;;6.18;;
3068;SDS011;1545;51.728;8.796;2023-08-21T15:05:28;9.25;;;5.40;;
3068;SDS011;1545;51.728;8.796;2023-08-21T15:07:54;15.10;;;5.82;;
3068;SDS011;1545;51.728;8.796;2023-08-21T15:10:20;12.80;;;6.05;;
3068;SDS011;1545;51.728;8.796;2023-08-21T15:12:46;8.95;;;5.65;;
3068;SDS011;1545;51.728;8.796;2023-08-21T15:15:11;8.68;;;5.38;;
3068;SDS011;1545;51.728;8.796;2023-08-21T15:17:37;12.05;;;5.70;;
3068;SDS011;1545;51.728;8.796;2023-08-21T15:20:03;12.75;;;6.45;;